Terminal Aerodrome Forecast
Issued by NWS

Home | Current Version | Previous Version | Graphics & Text | Print | Product List | Glossary On
Versions: 1 2 3 4 5 6 7 8 9 10 11 12 13 14 15
000
FTUS43 KMPX 161738
TAFAXN
TAF
KAXN 161738Z 1618/1718 VRB02KT 6SM BR BKN250
     FM162300 VRB02KT P6SM SCT020 BKN100
     FM170200 34003KT 4SM BR SCT100 BKN250
     FM170600 32004KT 1/2SM FG BKN004
     FM171600 28005KT 4SM BR SCT006=

USA.gov is the U.S. government's official web portal to all federal, state and local government web resources and services.